Ellisville, IL (61431)

05:07 CDT le 23 octobre 2014 (GMT -0500)
MesoWest IL-9 @ Spoon River IL US ILDOT | Change Station
CLOSE
Current Station
Stations météorologiques personnelles
Location: Ellisville, IL
Altitude: 487 ft
Stations météo à proximité

Alt. 487 ft 40.57 °N, 90.30 °W | Updated 42 minutes ago

Ciel dégagé
Ciel dégagé
40 ° F
Paraît 40 ° F
N
2
Vent Variable Vent de ESE
Gusts 4.0 mph

Aujourd'hui
Haut(e) -- | Bas -- ° F
--% Risque de précip.
Hier
Haut(e) -- | Bas -- ° F
Precip. -- pouce
7:20 AM 6:09 PM
Lune descendante, 0% visible
Pression 30.19 pouce
Visibilité 10.0 Miles terrestres
Nuages Ciel dégagé
Refroidissement éolien 40 ° F
Point de rosée 37 ° F
Humidité 89%
Précipitations -999.00 pouce
Profondeur de la couche neigeuse Non disponible.
UV 0 sur 12
Pollen 1.40 sur 12
Ozone Bon
Flu Activity No Activity
METAR KMQB 230955Z AUTO 16005KT 10SM CLR 03/02 A3019 RMK AO2 T00260017

More Conditions Fewer Conditions

Pression 30.19 pouce
Visibilité 10.0 Miles terrestres
Nuages Ciel dégagé
Refroidissement éolien 40 ° F
Point de rosée 37 ° F
Humidité 89%
Précipitations -999.00 pouce
Profondeur de la couche neigeuse Non disponible.
UV 0 sur 12
Pollen 1.40 sur 12
Ozone Bon
Flu Activity No Activity
METAR KMQB 230955Z AUTO 16005KT 10SM CLR 03/02 A3019 RMK AO2 T00260017

More Conditions Fewer Conditions

10-Day Weather Forecast

Almanac

Astronomie

Oct. 23, 2014 Lever Coucher
Temps réel 07:20 CDT 18:09 CDT
Crépuscule civil 06:53 CDT 18:37 CDT
Crépuscule nautique 06:21 CDT 19:08 CDT
Crépuscule astronomique 05:49 CDT 19:40 CDT
Lune 07:00 CDT 18:10 CDT
Durée de lumière visible 11h 44m
Longueur du jour
10h 48m
Tomorrow will be 2m 31s shorter.
Lune descendante, 0% of the Moon is Illuminated
Aujourd'hui
Lune descendante
Oct 23
Nouveau
Oct 30
Premier quartier
Nov 6
Pleine lune
Nov 14
Dernier quartier

Extrêmes aujourd'hui

State Highs State Lows

Community

WunderPhotos

Upload Photos

1,764,201 Photos téléchargées !

Nearby

Qualité de l'air

  Qualité de l'air Indice de la qualité de l'air Polluant
Hier Bon
OZONE
Actuel Bon
OZONE
jeudi Bon
PM2.5
vendredi Bon
PM2.5
samedi Bon
PM2.5
dimanche Moyen
PM2.5

Épaisseur de neige

Station Depth Altitude
Pas de nouvelles chutes de neige

Activité sismique

Ville Distance Mag. Time & Date
No recent earthquake activity has been reported nearby.
Minimum magnitude displayed is 2.5.

Températures des eaux côtières

Lieu Température
Aucun rapport de station

Stations météo à proximité